createdAt,value
2018-05-08T00:00:52.143Z,15.35
2018-05-08T00:02:02.301Z,15.33
2018-05-08T00:03:12.454Z,15.23
2018-05-08T00:04:23.565Z,15.24
2018-05-08T00:05:33.741Z,15.25
2018-05-08T00:06:43.903Z,15.11
2018-05-08T00:07:54.099Z,15.15
2018-05-08T00:09:04.302Z,15.23
2018-05-08T00:10:14.423Z,15.03
2018-05-08T00:11:24.563Z,15.15
2018-05-08T00:12:34.760Z,15.11
2018-05-08T00:13:44.891Z,15.08
2018-05-08T00:14:54.773Z,14.99
2018-05-08T00:16:04.901Z,14.98
2018-05-08T00:17:15.094Z,14.99
2018-05-08T00:18:25.230Z,14.96
2018-05-08T00:19:35.113Z,15
2018-05-08T00:20:45.230Z,14.93
2018-05-08T00:21:55.472Z,14.96
2018-05-08T00:23:05.636Z,14.85
2018-05-08T00:24:15.837Z,14.88
2018-05-08T00:25:25.992Z,14.78
2018-05-08T00:26:36.246Z,14.8
2018-05-08T00:27:46.529Z,14.78
2018-05-08T00:28:56.426Z,14.74
2018-05-08T00:30:06.354Z,14.74
2018-05-08T00:31:16.485Z,14.7
2018-05-08T00:32:26.655Z,14.72
2018-05-08T00:33:36.868Z,14.72
2018-05-08T00:34:47.014Z,14.66
2018-05-08T00:35:57.171Z,14.6
2018-05-08T00:37:07.305Z,14.56
2018-05-08T00:38:17.507Z,14.59
2018-05-08T00:39:27.734Z,14.48
2018-05-08T00:40:37.609Z,14.58
2018-05-08T00:41:47.741Z,14.56
2018-05-08T00:42:57.866Z,14.54
2018-05-08T00:44:08.033Z,14.59
2018-05-08T00:45:18.165Z,14.54
2018-05-08T00:46:27.951Z,14.58
2018-05-08T00:47:37.813Z,14.56
2018-05-08T00:48:48.018Z,14.54
2018-05-08T00:49:58.145Z,14.5
2018-05-08T00:51:08.383Z,14.4
2018-05-08T00:52:18.522Z,14.5
2018-05-08T00:53:28.657Z,14.5
2018-05-08T00:54:38.776Z,14.43
2018-05-08T00:55:48.906Z,14.52
2018-05-08T00:56:59.137Z,14.52
2018-05-08T00:58:09.290Z,14.56
2018-05-08T00:59:19.526Z,14.56
2018-05-08T01:00:29.739Z,14.51
2018-05-08T01:01:39.947Z,14.44
2018-05-08T01:02:50.380Z,14.51
2018-05-08T01:04:00.525Z,14.54
2018-05-08T01:05:10.134Z,14.37
2018-05-08T01:06:20.364Z,14.52
2018-05-08T01:07:30.500Z,14.34
2018-05-08T01:08:40.624Z,14.4
2018-05-08T01:09:50.801Z,14.4
2018-05-08T01:11:00.932Z,14.39
2018-05-08T01:12:11.108Z,14.43
2018-05-08T01:13:21.248Z,14.34
2018-05-08T01:14:31.507Z,14.26
2018-05-08T01:15:41.758Z,14.24
2018-05-08T01:16:51.941Z,14.22
2018-05-08T01:18:02.137Z,14.22
2018-05-08T01:19:12.287Z,14.36
2018-05-08T01:20:22.446Z,14.43
2018-05-08T01:21:32.587Z,14.39
2018-05-08T01:22:42.523Z,14.39
2018-05-08T01:23:52.290Z,14.22
2018-05-08T01:25:02.430Z,14.34
2018-05-08T01:26:12.595Z,14.26
2018-05-08T01:27:22.887Z,14.25
2018-05-08T01:28:33.157Z,14.28
2018-05-08T01:29:43.357Z,14.32
2018-05-08T01:30:54.178Z,14.26
2018-05-08T01:32:04.209Z,14.26
2018-05-08T01:33:14.357Z,14.22
2018-05-08T01:34:23.884Z,14.19
2018-05-08T01:35:34.034Z,14.14
2018-05-08T01:36:44.170Z,14.14
2018-05-08T01:37:54.374Z,14.14
2018-05-08T01:39:04.524Z,14
2018-05-08T01:40:14.434Z,14.04
2018-05-08T01:41:24.574Z,13.95
2018-05-08T01:42:34.752Z,13.91
2018-05-08T01:43:44.932Z,13.82
2018-05-08T01:44:55.108Z,13.84
2018-05-08T01:46:05.275Z,13.76
2018-05-08T01:47:15.160Z,13.67
2018-05-08T01:48:25.346Z,13.58
2018-05-08T01:49:35.237Z,13.59
2018-05-08T01:50:45.379Z,13.56
2018-05-08T01:51:55.635Z,13.59
2018-05-08T01:53:05.502Z,13.52
2018-05-08T01:54:15.643Z,13.48
2018-05-08T01:55:25.805Z,13.38
2018-05-08T01:56:35.974Z,13.48
2018-05-08T01:57:46.170Z,13.38
2018-05-08T01:58:56.123Z,13.34
2018-05-08T02:00:06.252Z,13.33
2018-05-08T02:01:16.417Z,13.26
2018-05-08T02:02:26.718Z,13.22
2018-05-08T02:03:36.618Z,13.22
2018-05-08T02:04:46.523Z,13.19
2018-05-08T02:05:56.749Z,13.18
2018-05-08T02:07:06.876Z,13.04
2018-05-08T02:08:17.020Z,13.06
2018-05-08T02:09:26.894Z,12.96
2018-05-08T02:10:38.004Z,13.03
2018-05-08T02:11:48.131Z,13
2018-05-08T02:12:58.277Z,12.97
2018-05-08T02:14:08.182Z,13
2018-05-08T02:15:18.341Z,12.96
2018-05-08T02:16:28.449Z,12.9
2018-05-08T02:17:38.335Z,12.96
2018-05-08T02:18:48.497Z,12.9
2018-05-08T02:19:58.646Z,12.82
2018-05-08T02:21:08.523Z,12.88
2018-05-08T02:22:18.405Z,12.84
2018-05-08T02:23:28.674Z,12.85
2018-05-08T02:24:38.934Z,12.71
2018-05-08T02:25:50.203Z,12.71
2018-05-08T02:27:00.352Z,12.71
2018-05-08T02:28:10.502Z,12.66
2018-05-08T02:29:20.373Z,12.62
2018-05-08T02:30:30.513Z,12.66
2018-05-08T02:31:40.405Z,12.56
2018-05-08T02:32:50.557Z,12.57
2018-05-08T02:34:00.793Z,12.59
2018-05-08T02:35:10.986Z,12.57
2018-05-08T02:36:21.207Z,12.63
2018-05-08T02:37:31.405Z,12.63
2018-05-08T02:38:41.569Z,12.62
2018-05-08T02:39:51.787Z,12.72
2018-05-08T02:41:01.970Z,12.64
2018-05-08T02:42:12.118Z,12.6
2018-05-08T02:43:22.262Z,12.63
2018-05-08T02:44:32.513Z,12.62
2018-05-08T02:45:42.645Z,12.57
2018-05-08T02:46:52.774Z,12.56
2018-05-08T02:48:02.651Z,12.42
2018-05-08T02:49:12.807Z,12.44
2018-05-08T02:50:22.941Z,12.45
2018-05-08T02:51:33.094Z,12.38
2018-05-08T02:52:43.484Z,12.47
2018-05-08T02:53:53.609Z,12.42
2018-05-08T02:55:03.787Z,12.37
2018-05-08T02:56:13.950Z,12.42
2018-05-08T02:57:24.163Z,12.37
2018-05-08T02:58:34.354Z,12.44
2018-05-08T02:59:44.657Z,12.39
2018-05-08T03:00:54.528Z,12.42
2018-05-08T03:02:04.688Z,12.34
2018-05-08T03:03:14.560Z,12.26
2018-05-08T03:04:24.692Z,12.31
2018-05-08T03:05:34.829Z,12.26
2018-05-08T03:06:44.970Z,12.34
2018-05-08T03:07:55.198Z,12.31
2018-05-08T03:09:05.446Z,12.29
2018-05-08T03:10:15.593Z,12.24
2018-05-08T03:11:25.847Z,12.24
2018-05-08T03:12:36.072Z,12.26
2018-05-08T03:13:46.276Z,12.26
2018-05-08T03:14:57.367Z,12.08
2018-05-08T03:16:07.505Z,12.23
2018-05-08T03:17:17.627Z,12.09
2018-05-08T03:18:28.743Z,12.16
2018-05-08T03:19:38.882Z,12.09
2018-05-08T03:20:49.001Z,12.11
2018-05-08T03:21:59.147Z,12.16
2018-05-08T03:23:09.263Z,12.15
2018-05-08T03:24:19.346Z,12.11
2018-05-08T03:25:29.493Z,12.07
2018-05-08T03:26:39.670Z,12.07
2018-05-08T03:27:49.955Z,12.15
2018-05-08T03:29:00.222Z,12.09
2018-05-08T03:30:10.378Z,12.15
2018-05-08T03:31:20.512Z,12.07
2018-05-08T03:32:30.704Z,12.07
2018-05-08T03:33:41.099Z,12.07
2018-05-08T03:34:51.249Z,12.13
2018-05-08T03:36:00.904Z,12.04
2018-05-08T03:37:11.080Z,12.05
2018-05-08T03:38:21.221Z,12.05
2018-05-08T03:39:31.399Z,12.05
2018-05-08T03:40:41.530Z,12.04
2018-05-08T03:41:51.663Z,12.05
2018-05-08T03:43:01.895Z,12.05
2018-05-08T03:44:11.798Z,12.04
2018-05-08T03:45:21.949Z,12.11
2018-05-08T03:46:32.119Z,12.13
2018-05-08T03:47:42.255Z,12.13
2018-05-08T03:48:52.456Z,12.01
2018-05-08T03:50:02.598Z,12.07
2018-05-08T03:51:12.836Z,12.07
2018-05-08T03:52:23.018Z,12.04
2018-05-08T03:53:33.164Z,12.02
2018-05-08T03:54:43.327Z,11.95
2018-05-08T03:55:53.476Z,11.95
2018-05-08T03:57:03.657Z,11.87
2018-05-08T03:58:13.795Z,11.89
2018-05-08T03:59:23.992Z,11.9
2018-05-08T04:00:34.185Z,11.89
2018-05-08T04:01:44.368Z,11.89
2018-05-08T04:02:54.529Z,11.94
2018-05-08T04:04:04.836Z,11.84
2018-05-08T04:05:14.976Z,11.86
2018-05-08T04:06:25.109Z,11.77
2018-05-08T04:07:35.266Z,11.76
2018-05-08T04:08:45.396Z,11.74
2018-05-08T04:09:55.527Z,11.72
2018-05-08T04:11:05.396Z,11.77
2018-05-08T04:12:15.515Z,11.72
2018-05-08T04:13:25.700Z,11.77
2018-05-08T04:14:35.593Z,11.74
2018-05-08T04:15:45.464Z,11.79
2018-05-08T04:16:55.622Z,11.8
2018-05-08T04:18:05.590Z,11.74
2018-05-08T04:19:15.822Z,11.72
2018-05-08T04:20:26.182Z,11.83
2018-05-08T04:21:36.305Z,11.8
2018-05-08T04:22:46.500Z,11.86
2018-05-08T04:23:56.678Z,11.91
2018-05-08T04:25:06.554Z,11.89
2018-05-08T04:26:16.680Z,11.89
2018-05-08T04:27:26.813Z,11.89
2018-05-08T04:28:36.973Z,11.89
2018-05-08T04:29:47.107Z,11.9
2018-05-08T04:30:56.978Z,11.95
2018-05-08T04:32:07.244Z,11.98
2018-05-08T04:33:17.502Z,11.98
2018-05-08T04:34:27.688Z,12.04
2018-05-08T04:35:37.916Z,12.01
2018-05-08T04:36:48.196Z,12.07
2018-05-08T04:37:58.332Z,12.02
2018-05-08T04:39:08.481Z,12.07
2018-05-08T04:40:18.860Z,12.09
2018-05-08T04:41:29.017Z,12.19
2018-05-08T04:42:38.916Z,12.19
2018-05-08T04:43:48.805Z,12.15
2018-05-08T04:44:58.934Z,12.22
2018-05-08T04:46:09.056Z,12.19
2018-05-08T04:47:19.332Z,12.24
2018-05-08T04:48:29.616Z,12.24
2018-05-08T04:49:39.765Z,12.2
2018-05-08T04:50:49.926Z,12.2
2018-05-08T04:52:00.079Z,12.24
2018-05-08T04:53:10.278Z,12.27
2018-05-08T04:54:20.183Z,12.35
2018-05-08T04:55:30.334Z,12.37
2018-05-08T04:56:40.555Z,12.35
2018-05-08T04:57:50.701Z,12.37
2018-05-08T04:59:00.607Z,12.52
2018-05-08T05:00:10.734Z,12.56
2018-05-08T05:01:20.863Z,12.55
2018-05-08T05:02:31.034Z,12.57
2018-05-08T05:03:41.237Z,12.66
2018-05-08T05:04:51.125Z,12.66
2018-05-08T05:06:01.327Z,12.72
2018-05-08T05:07:11.471Z,12.77
2018-05-08T05:08:21.597Z,12.82
2018-05-08T05:09:31.823Z,12.89
2018-05-08T05:10:42.027Z,12.89
2018-05-08T05:11:52.411Z,12.95
2018-05-08T05:13:02.603Z,13.03
2018-05-08T05:14:12.804Z,13.11
2018-05-08T05:15:22.753Z,13.09
2018-05-08T05:16:32.933Z,13.21
2018-05-08T05:17:43.202Z,13.22
2018-05-08T05:18:53.339Z,13.38
2018-05-08T05:20:03.583Z,13.44
2018-05-08T05:21:13.478Z,13.46
2018-05-08T05:22:23.352Z,13.54
2018-05-08T05:23:33.234Z,13.46
2018-05-08T05:24:43.419Z,13.51
2018-05-08T05:25:53.037Z,13.56
2018-05-08T05:27:03.242Z,13.64
2018-05-08T05:28:13.011Z,13.58
2018-05-08T05:29:23.301Z,13.56
2018-05-08T05:30:33.508Z,13.7
2018-05-08T05:31:44.019Z,13.7
2018-05-08T05:32:54.275Z,13.79
2018-05-08T05:34:04.443Z,13.84
2018-05-08T05:35:14.577Z,13.94
2018-05-08T05:36:24.709Z,13.94
2018-05-08T05:37:34.620Z,14
2018-05-08T05:38:44.763Z,14.02
2018-05-08T05:39:54.893Z,14.04
2018-05-08T05:41:05.020Z,14.09
2018-05-08T05:42:15.174Z,14.11
2018-05-08T05:43:25.384Z,14.07
2018-05-08T05:44:35.583Z,14.14
2018-05-08T05:45:45.443Z,14.22
2018-05-08T05:46:55.345Z,14.29
2018-05-08T05:48:05.463Z,14.24
2018-05-08T05:49:15.616Z,14.37
2018-05-08T05:50:25.763Z,14.44
2018-05-08T05:51:35.915Z,14.43
2018-05-08T05:52:46.109Z,14.44
2018-05-08T05:53:56.280Z,14.31
2018-05-08T05:55:06.413Z,14.36
2018-05-08T05:56:16.540Z,14.36
2018-05-08T05:57:26.401Z,14.52
2018-05-08T05:58:36.532Z,14.52
2018-05-08T05:59:46.500Z,14.56
2018-05-08T06:00:56.739Z,14.54
2018-05-08T06:02:06.735Z,14.58
2018-05-08T06:03:16.859Z,14.65
2018-05-08T06:04:27.010Z,14.7
2018-05-08T06:05:37.170Z,14.67
2018-05-08T06:06:46.864Z,14.72
2018-05-08T06:07:57.108Z,14.81
2018-05-08T06:09:06.998Z,14.75
2018-05-08T06:10:17.148Z,14.83
2018-05-08T06:11:27.410Z,14.81
2018-05-08T06:12:37.608Z,14.87
2018-05-08T06:13:47.219Z,14.84
2018-05-08T06:14:57.147Z,14.9
2018-05-08T06:16:07.291Z,14.91
2018-05-08T06:17:17.661Z,14.99
2018-05-08T06:18:27.808Z,14.93
2018-05-08T06:19:38.007Z,15.14
2018-05-08T06:20:48.189Z,15.15
2018-05-08T06:21:58.428Z,15.08
2018-05-08T06:23:08.302Z,15.13
2018-05-08T06:24:18.447Z,15.17
2018-05-08T06:25:28.595Z,15.24
2018-05-08T06:26:39.003Z,15.23
2018-05-08T06:27:49.142Z,15.21
2018-05-08T06:28:59.348Z,15.27
2018-05-08T06:30:09.665Z,15.25
2018-05-08T06:31:19.797Z,15.32
2018-05-08T06:32:29.935Z,15.39
2018-05-08T06:33:39.827Z,15.4
2018-05-08T06:34:49.965Z,15.45
2018-05-08T06:36:00.103Z,15.55
2018-05-08T06:37:10.272Z,15.55
2018-05-08T06:38:20.533Z,15.55
2018-05-08T06:39:30.900Z,15.55
2018-05-08T06:40:41.211Z,15.63
2018-05-08T06:41:51.345Z,15.55
2018-05-08T06:43:01.236Z,15.61
2018-05-08T06:44:11.163Z,15.73
2018-05-08T06:45:21.346Z,15.78
2018-05-08T06:46:31.510Z,15.76
2018-05-08T06:47:41.416Z,15.76
2018-05-08T06:48:51.621Z,15.79
2018-05-08T06:50:01.802Z,15.84
2018-05-08T06:51:12.082Z,15.92
2018-05-08T06:52:22.284Z,15.87
2018-05-08T06:53:32.162Z,15.98
2018-05-08T06:54:42.324Z,15.94
2018-05-08T06:55:52.510Z,15.95
2018-05-08T06:57:02.685Z,15.99
2018-05-08T06:58:12.681Z,15.95
2018-05-08T06:59:23.051Z,15.98
2018-05-08T07:00:33.224Z,15.98
2018-05-08T07:01:43.377Z,16.01
2018-05-08T07:02:53.608Z,15.99
2018-05-08T07:04:03.751Z,15.96
2018-05-08T07:05:13.893Z,16.06
2018-05-08T07:06:24.026Z,16.06
2018-05-08T07:07:34.176Z,16.16
2018-05-08T07:08:44.360Z,16.07
2018-05-08T07:09:54.597Z,16.1
2018-05-08T07:11:04.845Z,16.2
2018-05-08T07:12:14.723Z,16.14
2018-05-08T07:13:24.864Z,16.21
2018-05-08T07:14:35.000Z,16.28
2018-05-08T07:15:45.360Z,16.29
2018-05-08T07:16:55.899Z,16.42
2018-05-08T07:18:06.204Z,16.43
2018-05-08T07:19:16.097Z,16.34
2018-05-08T07:20:26.266Z,16.36
2018-05-08T07:21:36.427Z,16.46
2018-05-08T07:22:46.577Z,16.42
2018-05-08T07:23:56.982Z,16.39
2018-05-08T07:25:07.380Z,16.46
2018-05-08T07:26:17.241Z,16.46
2018-05-08T07:27:27.448Z,16.5
2018-05-08T07:28:37.620Z,16.54
2018-05-08T07:29:47.784Z,16.54
2018-05-08T07:30:58.047Z,16.54
2018-05-08T07:32:08.270Z,16.59
2018-05-08T07:33:18.461Z,16.71
2018-05-08T07:34:28.682Z,16.75
2018-05-08T07:35:38.569Z,16.8
2018-05-08T07:36:48.752Z,16.74
2018-05-08T07:37:58.688Z,16.72
2018-05-08T07:39:08.835Z,16.84
2018-05-08T07:40:18.962Z,16.9
2018-05-08T07:41:29.121Z,16.91
2018-05-08T07:42:39.284Z,16.99
2018-05-08T07:43:49.170Z,17.01
2018-05-08T07:44:59.091Z,16.96
2018-05-08T07:46:08.973Z,17.02
2018-05-08T07:47:19.218Z,17.06
2018-05-08T07:48:29.415Z,17.17
2018-05-08T07:49:39.568Z,17.2
2018-05-08T07:50:49.446Z,17.24
2018-05-08T07:51:59.667Z,17.42
2018-05-08T07:53:09.570Z,17.36
2018-05-08T07:54:19.701Z,17.36
2018-05-08T07:55:29.868Z,17.43
2018-05-08T07:56:40.026Z,17.46
2018-05-08T07:57:50.157Z,17.58
2018-05-08T07:59:00.056Z,17.61
2018-05-08T08:00:10.226Z,17.68
2018-05-08T08:01:20.395Z,17.76
2018-05-08T08:02:30.627Z,17.86
2018-05-08T08:03:40.917Z,17.94
2018-05-08T08:04:51.161Z,17.97
2018-05-08T08:06:02.322Z,18.12
2018-05-08T08:07:12.575Z,18.23
2018-05-08T08:08:22.782Z,18.38
2018-05-08T08:09:33.045Z,18.4
2018-05-08T08:10:42.935Z,18.4
2018-05-08T08:11:53.075Z,18.56
2018-05-08T08:13:03.250Z,18.72
2018-05-08T08:14:13.413Z,18.9
2018-05-08T08:15:23.659Z,19
2018-05-08T08:16:33.825Z,19.15
2018-05-08T08:17:43.731Z,19.27
2018-05-08T08:18:53.648Z,19.37
2018-05-08T08:20:03.782Z,19.53
2018-05-08T08:21:13.950Z,19.67
2018-05-08T08:22:23.823Z,19.76
2018-05-08T08:23:33.997Z,19.83
2018-05-08T08:24:44.188Z,19.97
2018-05-08T08:25:54.320Z,20.07
2018-05-08T08:27:04.470Z,20.3
2018-05-08T08:28:15.589Z,20.46
2018-05-08T08:29:25.770Z,20.82
2018-05-08T08:30:35.958Z,21.3
2018-05-08T08:31:46.323Z,21.98
2018-05-08T08:32:56.470Z,22.7
2018-05-08T08:34:06.646Z,23.38
2018-05-08T08:35:16.628Z,23.88
2018-05-08T08:36:26.783Z,24.48
2018-05-08T08:37:36.920Z,24.88
2018-05-08T08:38:47.081Z,25.19
2018-05-08T08:39:57.351Z,25.68
2018-05-08T08:41:07.262Z,25.93
2018-05-08T08:42:17.471Z,26.24
2018-05-08T08:43:27.728Z,26.37
2018-05-08T08:44:37.861Z,26.51
2018-05-08T08:45:47.751Z,26.58
2018-05-08T08:46:57.669Z,26.75
2018-05-08T08:48:07.866Z,26.95
2018-05-08T08:49:18.075Z,27.1
2018-05-08T08:50:27.971Z,27.31
2018-05-08T08:51:37.572Z,27.45
2018-05-08T08:52:47.744Z,27.52
2018-05-08T08:53:57.916Z,27.48
2018-05-08T08:55:08.096Z,27.48
2018-05-08T08:56:18.028Z,27.41
2018-05-08T08:57:28.238Z,27.33
2018-05-08T08:58:38.439Z,27.17
2018-05-08T08:59:48.323Z,27.03
2018-05-08T09:00:58.508Z,27.08
2018-05-08T09:02:08.702Z,26.92
2018-05-08T09:03:18.618Z,26.96
2018-05-08T09:04:28.757Z,26.98
2018-05-08T09:05:38.893Z,27.08
2018-05-08T09:06:49.082Z,27.24
2018-05-08T09:08:00.207Z,27.26
2018-05-08T09:09:12.438Z,27.27
2018-05-08T09:10:22.342Z,27.49
2018-05-08T09:11:32.582Z,27.52
2018-05-08T09:12:42.747Z,27.6
2018-05-08T09:13:52.718Z,27.6
2018-05-08T09:15:02.955Z,27.63
2018-05-08T09:16:13.194Z,27.63
2018-05-08T09:17:23.423Z,27.55
2018-05-08T09:18:33.631Z,27.67
2018-05-08T09:19:43.924Z,27.74
2018-05-08T09:20:54.332Z,27.83
2018-05-08T09:22:04.491Z,27.89
2018-05-08T09:23:14.672Z,27.94
2018-05-08T09:24:24.829Z,27.98
2018-05-08T09:25:36.208Z,27.95
2018-05-08T09:26:46.705Z,28.01
2018-05-08T09:27:56.641Z,28.11
2018-05-08T09:29:06.830Z,28.29
2018-05-08T09:30:16.784Z,28.5
2018-05-08T09:31:28.011Z,28.35
2018-05-08T09:32:38.198Z,28.14
2018-05-08T09:33:48.373Z,28
2018-05-08T09:34:58.554Z,27.92
2018-05-08T09:36:08.718Z,27.89
2018-05-08T09:37:18.892Z,27.97
2018-05-08T09:38:29.058Z,27.92
2018-05-08T09:39:39.025Z,27.9
2018-05-08T09:40:49.345Z,27.89
2018-05-08T09:41:59.690Z,27.86
2018-05-08T09:43:09.590Z,28.01
2018-05-08T09:44:19.521Z,27.97
2018-05-08T09:45:29.741Z,28.14
2018-05-08T09:46:39.996Z,28.29
2018-05-08T09:47:50.176Z,28.45
2018-05-08T09:49:00.456Z,28.61
2018-05-08T09:50:10.817Z,28.45
2018-05-08T09:51:20.960Z,28.2
2018-05-08T09:52:31.135Z,28.13
2018-05-08T09:53:41.370Z,28.13
2018-05-08T09:54:51.527Z,28
2018-05-08T09:56:01.720Z,27.9
2018-05-08T09:57:11.943Z,27.89
2018-05-08T09:58:22.132Z,27.87
2018-05-08T09:59:32.065Z,27.79
2018-05-08T10:00:42.229Z,27.68
2018-05-08T10:01:53.843Z,27.72
2018-05-08T10:03:04.033Z,27.65
2018-05-08T10:04:14.202Z,27.7
2018-05-08T10:05:24.012Z,27.83
2018-05-08T10:06:34.342Z,27.89
2018-05-08T10:07:44.600Z,27.92
2018-05-08T10:08:54.752Z,28.05
2018-05-08T10:10:04.961Z,28.14
2018-05-08T10:11:14.895Z,28.32
2018-05-08T10:12:25.070Z,28.53
2018-05-08T10:13:35.228Z,28.53
2018-05-08T10:14:45.434Z,28.51
2018-05-08T10:15:55.579Z,28.57
2018-05-08T10:17:05.387Z,28.41
2018-05-08T10:18:15.570Z,28.16
2018-05-08T10:19:25.485Z,28.22
2018-05-08T10:20:35.838Z,28.13
2018-05-08T10:21:46.219Z,28.11
2018-05-08T10:22:56.421Z,28.04
2018-05-08T10:24:06.397Z,27.98
2018-05-08T10:25:16.579Z,27.9
2018-05-08T10:26:26.770Z,27.9
2018-05-08T10:27:36.949Z,27.95
2018-05-08T10:28:46.866Z,28.11
2018-05-08T10:29:56.786Z,28.24
2018-05-08T10:31:07.038Z,28.29
2018-05-08T10:32:17.257Z,28.46
2018-05-08T10:33:27.451Z,28.45
2018-05-08T10:34:37.625Z,28.5
2018-05-08T10:35:47.834Z,28.51
2018-05-08T10:36:57.999Z,28.54
2018-05-08T10:38:08.325Z,28.51
2018-05-08T10:39:18.497Z,28.44
2018-05-08T10:40:28.401Z,28.35
2018-05-08T10:41:38.563Z,28.38
2018-05-08T10:42:48.872Z,28.38
2018-05-08T10:43:59.339Z,28.42
2018-05-08T10:45:09.590Z,28.5
2018-05-08T10:46:19.841Z,28.45
2018-05-08T10:47:30.044Z,28.51
2018-05-08T10:48:40.322Z,28.7
2018-05-08T10:49:50.523Z,28.96
2018-05-08T10:51:00.778Z,29.01
2018-05-08T10:52:11.111Z,29.02
2018-05-08T10:53:21.283Z,29.02
2018-05-08T10:54:31.503Z,29.02
2018-05-08T10:55:42.714Z,28.83
2018-05-08T10:56:53.254Z,28.64
2018-05-08T10:58:03.533Z,28.65
2018-05-08T10:59:13.712Z,28.65
2018-05-08T11:00:23.927Z,28.73
2018-05-08T11:01:33.934Z,28.65
2018-05-08T11:02:43.937Z,28.31
2018-05-08T11:03:54.183Z,28.17
2018-05-08T11:05:04.338Z,27.98
2018-05-08T11:06:14.651Z,28.08
2018-05-08T11:07:24.856Z,28.09
2018-05-08T11:08:35.115Z,28.14
2018-05-08T11:09:45.312Z,28.13
2018-05-08T11:10:55.513Z,28.35
2018-05-08T11:12:05.698Z,28.51
2018-05-08T11:13:15.858Z,28.46
2018-05-08T11:14:26.074Z,28.49
2018-05-08T11:15:36.003Z,28.64
2018-05-08T11:16:46.188Z,28.41
2018-05-08T11:17:56.386Z,28.45
2018-05-08T11:19:06.729Z,28.56
2018-05-08T11:20:16.957Z,28.53
2018-05-08T11:21:27.117Z,28.41
2018-05-08T11:22:37.313Z,28.31
2018-05-08T11:23:47.475Z,28.34
2018-05-08T11:24:57.676Z,28.19
2018-05-08T11:26:07.845Z,28.16
2018-05-08T11:27:17.767Z,28.14
2018-05-08T11:28:27.941Z,28.09
2018-05-08T11:29:37.997Z,28.08
2018-05-08T11:30:49.170Z,28.01
2018-05-08T11:31:59.484Z,27.98
2018-05-08T11:33:09.698Z,27.97
2018-05-08T11:34:19.911Z,28
2018-05-08T11:35:30.219Z,28
2018-05-08T11:36:40.383Z,28
2018-05-08T11:37:50.649Z,27.87
2018-05-08T11:39:00.854Z,27.89
2018-05-08T11:40:11.111Z,27.83
2018-05-08T11:41:21.332Z,27.85
2018-05-08T11:42:31.516Z,27.87
2018-05-08T11:43:41.705Z,27.76
2018-05-08T11:44:51.993Z,27.63
2018-05-08T11:46:02.200Z,27.49
2018-05-08T11:47:12.402Z,27.53
2018-05-08T11:48:22.250Z,27.43
2018-05-08T11:49:32.281Z,27.42
2018-05-08T11:50:42.511Z,27.45
2018-05-08T11:51:52.672Z,27.42
2018-05-08T11:53:02.920Z,27.39
2018-05-08T11:54:13.147Z,27.37
2018-05-08T11:55:23.440Z,27.42
2018-05-08T11:56:33.383Z,27.52
2018-05-08T11:57:43.538Z,27.68
2018-05-08T11:58:53.698Z,27.65
2018-05-08T12:00:03.899Z,27.79
2018-05-08T12:01:14.055Z,27.85
2018-05-08T12:02:24.303Z,27.89
2018-05-08T12:03:34.527Z,27.95
2018-05-08T12:04:44.805Z,28
2018-05-08T12:05:55.003Z,28.23
2018-05-08T12:07:05.270Z,28.34
2018-05-08T12:08:16.409Z,28.32
2018-05-08T12:09:26.576Z,28.32
2018-05-08T12:10:36.854Z,28.27
2018-05-08T12:11:46.758Z,28.23
2018-05-08T12:12:56.930Z,28.09
2018-05-08T12:14:07.085Z,27.94
2018-05-08T12:15:17.269Z,27.97
2018-05-08T12:16:27.519Z,27.83
2018-05-08T12:17:37.685Z,27.7
2018-05-08T12:18:47.874Z,27.68
2018-05-08T12:19:58.057Z,27.48
2018-05-08T12:21:08.305Z,27.35
2018-05-08T12:22:18.207Z,27.27
2018-05-08T12:23:28.369Z,27.27
2018-05-08T12:24:38.607Z,27.37
2018-05-08T12:25:48.441Z,27.41
2018-05-08T12:26:58.610Z,27.26
2018-05-08T12:28:08.781Z,27.03
2018-05-08T12:29:18.942Z,26.98
2018-05-08T12:30:29.146Z,26.95
2018-05-08T12:31:39.381Z,26.78
2018-05-08T12:32:49.547Z,26.68
2018-05-08T12:33:59.775Z,26.55
2018-05-08T12:35:09.978Z,26.46
2018-05-08T12:36:20.461Z,26.4
2018-05-08T12:37:30.420Z,26.22
2018-05-08T12:38:40.593Z,26.11
2018-05-08T12:39:50.142Z,25.97
2018-05-08T12:41:00.321Z,25.9
2018-05-08T12:42:10.716Z,25.94
2018-05-08T12:43:21.493Z,25.92
2018-05-08T12:44:32.291Z,25.99
2018-05-08T12:45:42.472Z,26.07
2018-05-08T12:46:52.732Z,25.99
2018-05-08T12:48:02.935Z,25.92
2018-05-08T12:49:13.207Z,25.92
2018-05-08T12:50:23.472Z,25.87
2018-05-08T12:51:33.833Z,25.73
2018-05-08T12:52:43.981Z,25.69
2018-05-08T12:53:54.001Z,25.65
2018-05-08T12:55:04.176Z,25.52
2018-05-08T12:56:14.584Z,25.32
2018-05-08T12:57:24.826Z,25.39
2018-05-08T12:58:34.992Z,25.32
2018-05-08T12:59:44.911Z,25.31
2018-05-08T13:00:55.081Z,25.28
2018-05-08T13:02:05.250Z,25.27
2018-05-08T13:03:15.422Z,25.18
2018-05-08T13:04:25.617Z,24.99
2018-05-08T13:05:35.517Z,24.99
2018-05-08T13:06:45.667Z,24.91
2018-05-08T13:07:55.829Z,24.76
2018-05-08T13:09:05.885Z,24.66
2018-05-08T13:10:15.840Z,24.63
2018-05-08T13:11:26.008Z,24.62
2018-05-08T13:12:35.958Z,24.6
2018-05-08T13:13:46.360Z,24.58
2018-05-08T13:14:56.547Z,24.58
2018-05-08T13:16:06.755Z,24.63
2018-05-08T13:17:16.963Z,24.62
2018-05-08T13:18:27.334Z,24.58
2018-05-08T13:19:37.514Z,24.76
2018-05-08T13:20:48.639Z,24.8
2018-05-08T13:21:58.898Z,24.87
2018-05-08T13:23:09.063Z,24.85
2018-05-08T13:24:19.431Z,24.84
2018-05-08T13:25:29.541Z,24.84
2018-05-08T13:26:39.463Z,24.78
2018-05-08T13:27:49.647Z,24.72
2018-05-08T13:28:59.910Z,24.65
2018-05-08T13:30:10.114Z,24.55
2018-05-08T13:31:20.164Z,24.6
2018-05-08T13:32:30.480Z,24.62
2018-05-08T13:33:40.649Z,24.67
2018-05-08T13:34:50.609Z,24.7
2018-05-08T13:36:00.785Z,24.6
2018-05-08T13:37:10.771Z,24.65
2018-05-08T13:38:20.978Z,24.63
2018-05-08T13:39:31.158Z,24.57
2018-05-08T13:40:41.373Z,24.6
2018-05-08T13:41:51.352Z,24.54
2018-05-08T13:43:01.794Z,24.51
2018-05-08T13:44:11.994Z,24.53
2018-05-08T13:45:22.235Z,24.6
2018-05-08T13:46:32.537Z,24.58
2018-05-08T13:47:42.786Z,24.63
2018-05-08T13:48:52.972Z,24.62
2018-05-08T13:50:02.907Z,24.62
2018-05-08T13:51:13.091Z,24.65
2018-05-08T13:52:23.472Z,24.7
2018-05-08T13:53:33.647Z,24.73
2018-05-08T13:54:43.675Z,24.75
2018-05-08T13:55:53.915Z,24.63
2018-05-08T13:57:03.810Z,24.6
2018-05-08T13:58:13.987Z,24.47
2018-05-08T13:59:25.126Z,24.28
2018-05-08T14:00:35.347Z,24.31
2018-05-08T14:01:45.540Z,24.35
2018-05-08T14:02:55.724Z,24.22
2018-05-08T14:04:05.955Z,24.12
2018-05-08T14:05:16.173Z,24.09
2018-05-08T14:06:26.551Z,24.15
2018-05-08T14:07:36.917Z,24.1
2018-05-08T14:08:47.127Z,24.06
2018-05-08T14:09:57.072Z,24.09
2018-05-08T14:11:07.245Z,24.12
2018-05-08T14:12:17.453Z,24.02
2018-05-08T14:13:27.619Z,24.09
2018-05-08T14:14:37.834Z,24.05
2018-05-08T14:15:48.023Z,24
2018-05-08T14:16:58.332Z,24.1
2018-05-08T14:18:08.570Z,24.16
2018-05-08T14:19:18.937Z,24.16
2018-05-08T14:20:29.015Z,24.17
2018-05-08T14:21:39.205Z,24.12
2018-05-08T14:22:49.010Z,24.16
2018-05-08T14:23:59.228Z,24.28
2018-05-08T14:25:09.515Z,24.12
2018-05-08T14:26:19.697Z,24.09
2018-05-08T14:27:29.890Z,24.09
2018-05-08T14:28:39.443Z,23.94
2018-05-08T14:29:50.774Z,24
2018-05-08T14:31:01.005Z,24.06
2018-05-08T14:32:11.279Z,24.01
2018-05-08T14:33:21.489Z,24
2018-05-08T14:34:31.698Z,24.06
2018-05-08T14:35:41.912Z,24.07
2018-05-08T14:36:51.852Z,24.05
2018-05-08T14:38:02.083Z,24.15
2018-05-08T14:39:12.032Z,24.2
2018-05-08T14:40:22.260Z,24.19
2018-05-08T14:41:32.208Z,24.17
2018-05-08T14:42:41.908Z,24.16
2018-05-08T14:43:52.086Z,24.25
2018-05-08T14:45:02.005Z,24.2
2018-05-08T14:46:12.437Z,24.2
2018-05-08T14:47:22.655Z,24.22
2018-05-08T14:48:32.567Z,24.16
2018-05-08T14:49:42.967Z,24.2
2018-05-08T14:50:53.145Z,24.2
2018-05-08T14:52:03.340Z,24.16
2018-05-08T14:53:13.529Z,24.16
2018-05-08T14:54:23.457Z,24.19
2018-05-08T14:55:33.612Z,24.12
2018-05-08T14:56:43.914Z,24.19
2018-05-08T14:57:54.194Z,24.24
2018-05-08T14:59:04.588Z,24.25
2018-05-08T15:00:14.776Z,24.13
2018-05-08T15:01:24.987Z,24.12
2018-05-08T15:02:34.696Z,24.09
2018-05-08T15:03:44.916Z,24.07
2018-05-08T15:04:55.816Z,24.05
2018-05-08T15:06:05.726Z,24.02
2018-05-08T15:07:16.095Z,24.06
2018-05-08T15:08:26.296Z,24.01